^^
Datos históricos de la estación: Murcia-Puente Tocinos
Diario Informe para Enero 17, 2019 Unidades:  Ingés    Métrico   Ambas
Diario Semanal Mensual Anual
  Máxima: Mínima: Promedio:
Temperatura: 64 °F 43.9 °F 53.2 °F
Punto de rocio: 43.2 °F 29.3 °F 34.5 °F
Humedad: 69.4% 34% 50%
Velocidad viento: 8.1mph 0mph 3.7mph
Racha viento: 14mph - -
Viento- - SO
Presión: 30 in 29.8 in -
Precipitación: 0 in    
 
 
Tabla de datos para Enero 17, 2019
Hora Temperatura Punto de rocio Presión Viento Velocidad viento Racha viento Humedad Intensidad lluvia(por hora) Nubes
00:04 52.9 °F 29.5 °F 30 in OSO 8.1 mph 13 mph 40.4% 0 in
00:09 52.7 °F 29.7 °F 30 in OSO 8.1 mph 13 mph 41% 0 in
00:14 52.5 °F 29.5 °F 30 in OSO 7.8 mph 12 mph 41% 0 in
00:19 52.3 °F 29.8 °F 30 in Oeste 7.6 mph 10.4 mph 41.9% 0 in
00:24 52 °F 29.7 °F 30 in Oeste 6.8 mph 10 mph 42% 0 in
00:29 51.8 °F 29.7 °F 30 in SO 6.4 mph 9 mph 42.3% 0 in
00:34 51.6 °F 29.5 °F 30 in SSO 5.3 mph 8 mph 42.4% 0 in
00:39 51.6 °F 29.3 °F 30 in SSO 4.7 mph 6 mph 42% 0 in
00:44 51.8 °F 29.7 °F 30 in SSE 4 mph 6 mph 42.7% 0 in
00:49 51.4 °F 29.8 °F 30 in SE 3.6 mph 6 mph 43.5% 0 in
00:54 50.7 °F 30 °F 30 in SE 3.2 mph 5 mph 44.6% 0 in
00:59 50.4 °F 30 °F 30 in Sur 2.9 mph 7.4 mph 45.2% 0 in
01:04 50.4 °F 29.8 °F 30 in SO 3.4 mph 8.5 mph 45% 0 in
01:09 50.5 °F 29.8 °F 30 in SO 3.6 mph 10.4 mph 44.8% 0 in
01:14 50.7 °F 29.7 °F 30 in SO 5.1 mph 10 mph 44% 0 in
01:19 50.7 °F 29.7 °F 30 in OSO 5.9 mph 9.2 mph 44% 0 in
01:24 50.7 °F 29.7 °F 30 in OSO 6.1 mph 9.2 mph 44.1% 0 in
01:29 50.5 °F 30 °F 30 in SO 6.2 mph 9 mph 45% 0 in
01:34 50.4 °F 29.8 °F 30 in SO 5.2 mph 8.1 mph 45% 0 in
01:39 50.4 °F 29.8 °F 30 in SO 4.7 mph 8 mph 45% 0 in
01:44 50.4 °F 30 °F 30 in Sur 4.2 mph 6.9 mph 45.6% 0 in
01:49 49.6 °F 30 °F 30 in Sur 4 mph 7 mph 46.6% 0 in
01:54 48.9 °F 30 °F 30 in Sur 4 mph 6.9 mph 47.8% 0 in
01:59 48.6 °F 30.2 °F 30 in SSO 4 mph 7 mph 48.9% 0 in
02:04 48.4 °F 30.2 °F 30 in SO 3.4 mph 6 mph 49.1% 0 in
02:09 48.4 °F 30.2 °F 30 in OSO 3.1 mph 5.2 mph 49.1% 0 in
02:14 48.6 °F 30.2 °F 30 in OSO 3 mph 5.8 mph 49% 0 in
02:19 48.7 °F 30.4 °F 30 in Oeste 2.9 mph 6.9 mph 48.9% 0 in
02:24 48.7 °F 30.2 °F 30 in OSO 3.6 mph 7 mph 48.7% 0 in
02:29 48.7 °F 30 °F 30 in SO 4 mph 7 mph 48.4% 0 in
02:34 48.6 °F 30 °F 30 in SO 4 mph 7.6 mph 48.8% 0 in
02:39 48.6 °F 30.2 °F 30 in Sur 4 mph 8 mph 49.3% 0 in
02:44 47.8 °F 30.4 °F 30 in SSE 4.2 mph 7 mph 50.5% 0 in
02:49 47.3 °F 30.4 °F 30 in Sur 4.3 mph 8.1 mph 51.5% 0 in
02:54 46.9 °F 30.2 °F 30 in Sur 4.1 mph 8 mph 52% 0 in
02:59 46.9 °F 30.4 °F 30 in Sur 4 mph 5 mph 52.2% 0 in
03:04 46.9 °F 30.2 °F 30 in Sur 3.4 mph 5.8 mph 52% 0 in
03:09 47.1 °F 30.4 °F 30 in OSO 3.1 mph 6 mph 52% 0 in
03:14 47.1 °F 30.4 °F 30 in ONO 2.7 mph 4 mph 51.9% 0 in
03:19 47.3 °F 30.4 °F 30 in OSO 2.4 mph 4 mph 51.7% 0 in
03:24 47.5 °F 30.7 °F 30 in OSO 2.4 mph 4 mph 52% 0 in
03:29 47.5 °F 30.7 °F 30 in OSO 2.4 mph 4.6 mph 52% 0 in
03:34 47.7 °F 30.9 °F 30 in OSO 2.4 mph 5 mph 52.1% 0 in
03:39 47.5 °F 30.9 °F 30 in OSO 2.4 mph 5 mph 52.3% 0 in
03:44 47.3 °F 30.6 °F 30 in OSO 2.7 mph 5 mph 52% 0 in
03:49 47.1 °F 30.4 °F 30 in OSO 2.9 mph 5 mph 52% 0 in
03:54 47.3 °F 30.4 °F 30 in OSO 2.9 mph 5 mph 51.9% 0 in
03:59 47.5 °F 30.4 °F 30 in SO 2.9 mph 5 mph 51.3% 0 in
04:04 47.8 °F 30.2 °F 30 in Sur 2.5 mph 5 mph 50.2% 0 in
04:09 48.2 °F 30 °F 30 in Sur 2.4 mph 5 mph 49.3% 0 in
04:14 48.6 °F 30.2 °F 30 in OSO 2.1 mph 5 mph 48.9% 0 in
04:19 48.9 °F 30.6 °F 30 in SSO 2 mph 5.2 mph 48.9% 0 in
04:24 48.7 °F 30.6 °F 30 in SSO 2.7 mph 5.2 mph 49.2% 0 in
04:29 48.6 °F 30.7 °F 30 in SSO 3.1 mph 5 mph 50% 0 in
04:34 48 °F 30.7 °F 30 in SO 2.7 mph 5 mph 50.9% 0 in
04:39 47.8 °F 30.7 °F 30 in Oeste 2.4 mph 5 mph 51.3% 0 in
04:44 47.5 °F 30.9 °F 30 in Oeste 2 mph 3 mph 52.7% 0 in
04:49 46.9 °F 31.1 °F 30 in Oeste 1.8 mph 2.4 mph 53.9% 0 in
04:54 46.6 °F 31.1 °F 30 in Oeste 1.6 mph 2.9 mph 54.6% 0 in
04:59 46 °F 30.9 °F 30 in Oeste 1.4 mph 4.6 mph 55% 0 in
05:04 45.9 °F 30.9 °F 30 in Oeste 1.8 mph 5 mph 55.9% 0 in
05:09 45.5 °F 30.9 °F 30 in Oeste 2 mph 4 mph 56.5% 0 in
05:14 45.3 °F 30.9 °F 30 in Oeste 2 mph 5.2 mph 57% 0 in
05:19 45.1 °F 30.9 °F 30 in Oeste 2 mph 5.2 mph 57% 0 in
05:24 45.1 °F 30.7 °F 30 in Oeste 2.7 mph 6.9 mph 57% 0 in
05:29 45.1 °F 30.7 °F 30 in OSO 3.1 mph 7 mph 57% 0 in
05:34 45.1 °F 30.7 °F 30 in OSO 3.9 mph 7 mph 57% 0 in
05:39 45 °F 30.9 °F 30 in OSO 4.3 mph 6.2 mph 57.6% 0 in
05:44 45 °F 31.1 °F 30 in OSO 3.9 mph 6 mph 58% 0 in
05:49 45 °F 31.1 °F 30 in OSO 3.6 mph 6 mph 57.9% 0 in
05:54 45.1 °F 30.9 °F 30 in SO 3.1 mph 5 mph 57.3% 0 in
05:59 45.1 °F 30.9 °F 30 in Sur 2.9 mph 5 mph 57% 0 in
06:04 45.3 °F 31.3 °F 30 in Sur 2.2 mph 4 mph 57.8% 0 in
06:09 45.3 °F 31.5 °F 30 in Sur 2 mph 4.6 mph 58% 0 in
06:14 45.3 °F 31.5 °F 30 in Sur 1.9 mph 5 mph 58% 0 in
06:19 45.1 °F 31.5 °F 30 in Sur 1.8 mph 4.6 mph 58.4% 0 in
06:24 45.1 °F 31.6 °F 30 in Sur 2.2 mph 5 mph 59% 0 in
06:29 45 °F 31.6 °F 30 in SSO 2.4 mph 5.2 mph 59% 0 in
06:34 45 °F 31.5 °F 30 in SO 2.1 mph 5 mph 59.1% 0 in
06:39 45 °F 31.6 °F 30 in OSO 2 mph 4.3 mph 59.6% 0 in
06:44 44.8 °F 31.5 °F 30 in SSE 2.2 mph 5.8 mph 59.4% 0 in
06:49 44.4 °F 30.9 °F 30 in SSE 2.4 mph 6 mph 59% 0 in
06:54 44.1 °F 30.6 °F 30 in Sur 3.2 mph 6.9 mph 59% 0 in
06:59 43.9 °F 30.7 °F 30 in Sur 3.6 mph 7 mph 59.5% 0 in
07:04 43.9 °F 30.9 °F 30 in Sur 4.1 mph 7.6 mph 59.9% 0 in
07:09 44.1 °F 30.6 °F 30 in Sur 4.3 mph 9.7 mph 59% 0 in
07:14 44.2 °F 30.4 °F 30 in Sur 5.3 mph 10 mph 58.2% 0 in
07:19 44.4 °F 30.4 °F 30 in Sur 5.9 mph 9 mph 57.4% 0 in
07:24 44.8 °F 30.6 °F 30 in Sur 5.1 mph 6.9 mph 57% 0 in
07:29 45 °F 30.6 °F 30 in SSO 4.7 mph 7 mph 57% 0 in
07:34 45 °F 30.6 °F 30 in SSO 4.4 mph 6 mph 57% 0 in
07:39 45.1 °F 30.4 °F 30 in SSO 4.3 mph 6.9 mph 56.3% 0 in
07:44 45.5 °F 30.4 °F 30 in SSO 4.6 mph 7 mph 55.1% 0 in
07:49 45.9 °F 30.6 °F 30 in SSO 4.7 mph 6 mph 55% 0 in
07:54 45.9 °F 30.6 °F 30 in SSO 4 mph 6 mph 55% 0 in
07:59 45.9 °F 30.7 °F 30 in SSO 3.6 mph 5 mph 55% 0 in
08:04 45.9 °F 30.6 °F 30 in SSO 2.8 mph 5 mph 55% 0 in
08:09 45.9 °F 30.6 °F 30 in SSO 2.4 mph 5 mph 55% 0 in
08:14 45.9 °F 30.7 °F 30 in SSO 1.7 mph 2 mph 55.7% 0 in
08:19 45.7 °F 31.3 °F 30 in SSO 1.4 mph   56.9% 0 in
08:24 45.7 °F 31.1 °F 30 in SSO 0.5 mph 5.9 mph 56.5% 0 in
08:29 45.9 °F 30.9 °F 30 in Calm   6 mph 55.9% 0 in
08:34 45.9 °F 30.7 °F 30 in OSO 2.6 mph 6 mph 55.5% 0 in
08:39 45.9 °F 30.9 °F 30 in OSO 4 mph 6 mph 56% 0 in
08:44 45.9 °F 30.9 °F 30 in OSO 3.3 mph 5.2 mph 56% 0 in
08:49 45.9 °F 31.1 °F 30 in OSO 2.9 mph 5.9 mph 56.2% 0 in
08:54 45.9 °F 31.3 °F 30 in SO 3 mph 6.2 mph 56.3% 0 in
08:59 46.2 °F 31.3 °F 30 in Oeste 3.1 mph 6 mph 56% 0 in
09:04 46.2 °F 31.6 °F 30 in Oeste 3.1 mph 6 mph 56.5% 0 in
09:09 46.2 °F 31.8 °F 30 in Oeste 3.1 mph 6 mph 57% 0 in
09:14 46.2 °F 31.8 °F 30 in OSO 3.4 mph 6 mph 57% 0 in
09:19 46.4 °F 32 °F 30 in OSO 3.6 mph 6 mph 57% 0 in
09:24 46.8 °F 32.2 °F 30 in SSO 3.2 mph 6 mph 56.9% 0 in
09:29 47.3 °F 32 °F 30 in SSO 2.9 mph 9.2 mph 55.2% 0 in
09:34 47.8 °F 31.6 °F 30 in SSO 3.6 mph 9.2 mph 53.2% 0 in
09:39 48 °F 31.8 °F 30 in SSO 4 mph 9 mph 53% 0 in
09:44 48.6 °F 32 °F 30 in SSO 4.5 mph 8.1 mph 53% 0 in
09:49 48.7 °F 32.4 °F 30 in SSO 4.7 mph 6.2 mph 53% 0 in
09:54 48.9 °F 32.5 °F 30 in OSO 3.7 mph 6 mph 53% 0 in
09:59 49.3 °F 32.9 °F 30 in Oeste 3.1 mph 5.9 mph 53% 0 in
10:04 49.3 °F 32.9 °F 30 in Oeste 3 mph 6 mph 53% 0 in
10:09 49.5 °F 33.1 °F 30 in OSO 2.9 mph 6.2 mph 53.3% 0 in
10:14 49.6 °F 33.1 °F 30 in OSO 3.6 mph 6 mph 53% 0 in
10:19 49.8 °F 33.1 °F 30 in SO 4 mph 6.9 mph 52.3% 0 in
10:24 50.4 °F 33.4 °F 30 in SO 4 mph 7 mph 52% 0 in
10:29 50.9 °F 33.4 °F 30 in SSO 4 mph 7 mph 50.8% 0 in
10:34 51.6 °F 33.3 °F 30 in Sur 3.3 mph 6.2 mph 49.4% 0 in
10:39 52 °F 33.4 °F 30 in SO 2.9 mph 6.2 mph 49% 0 in
10:44 52.3 °F 33.1 °F 30 in SO 3.4 mph 7.4 mph 47.8% 0 in
10:49 52.5 °F 33.3 °F 30 in SO 3.6 mph 7 mph 47.9% 0 in
10:54 53.1 °F 33.4 °F 30 in SSO 3.6 mph 6.2 mph 47.3% 0 in
10:59 53.2 °F 33.1 °F 30 in SSO 3.6 mph 10 mph 46.1% 0 in
11:04 53.4 °F 33.3 °F 30 in SO 4.7 mph 10.4 mph 46% 0 in
11:09 53.8 °F 33.3 °F 30 in SSO 5.2 mph 9.2 mph 45.6% 0 in
11:14 54 °F 33.6 °F 30 in SSO 5.3 mph 9 mph 46% 0 in
11:19 54.1 °F 33.8 °F 30 in SO 5.4 mph 8 mph 45.9% 0 in
11:24 54.7 °F 33.8 °F 30 in SSO 4.7 mph 7 mph 45.3% 0 in
11:29 55 °F 34 °F 30 in SSO 4.3 mph 7 mph 44.7% 0 in
11:34 55.6 °F 33.6 °F 30 in SO 4.1 mph 10 mph 43.5% 0 in
11:39 55.8 °F 33.1 °F 30 in SSO 4 mph 10.4 mph 42% 0 in
11:44 55.9 °F 33.1 °F 30 in Sur 4.2 mph 10 mph 41.8% 0 in
11:49 56.1 °F 32.9 °F 30 in SSO 4.3 mph 9 mph 41.3% 0 in
11:54 56.1 °F 32.9 °F 30 in Sur 4.9 mph 8 mph 41.3% 0 in
11:59 56.5 °F 32.9 °F 30 in SSO 5.2 mph 9.2 mph 40.8% 0 in
12:04 56.7 °F 32.9 °F 30 in SSO 5.3 mph 10.7 mph 40.4% 0 in
12:09 56.7 °F 32.5 °F 30 in Sur 5.4 mph 11.2 mph 40% 0 in
12:14 56.7 °F 32.7 °F 30 in Sur 6.1 mph 11 mph 40% 0 in
12:19 56.8 °F 32.4 °F 30 in SSO 6.4 mph 10 mph 39.3% 0 in
12:24 57 °F 32.4 °F 30 in SSO 6.3 mph 9.2 mph 39% 0 in
12:29 57.6 °F 32.5 °F 30 in Sur 6.2 mph 9 mph 38.6% 0 in
12:34 58.1 °F 32.5 °F 30 in Sur 5.2 mph 9.7 mph 37.7% 0 in
12:39 58.6 °F 32.4 °F 30 in SSO 4.7 mph 11.8 mph 37% 0 in
12:44 58.6 °F 32.4 °F 29.9 in Sur 5.2 mph 12 mph 37% 0 in
12:49 58.8 °F 32.7 °F 29.9 in SSO 5.4 mph 9.2 mph 37.1% 0 in
12:54 59 °F 32.9 °F 29.9 in Sur 5.3 mph 9.2 mph 37.2% 0 in
12:59 59.4 °F 32.5 °F 29.9 in SSO 5.2 mph 12.7 mph 36.4% 0 in
13:04 59.4 °F 33.3 °F 29.9 in SSO 5.9 mph 13 mph 37.4% 0 in
13:09 59.7 °F 32.4 °F 29.9 in SSO 6.2 mph 13.8 mph 35.6% 0 in
13:14 59.9 °F 32 °F 29.9 in SO 5.7 mph 14 mph 34.9% 0 in
13:19 59.9 °F 32 °F 29.9 in OSO 5.4 mph 10 mph 34.7% 0 in
13:24 60.1 °F 31.5 °F 29.9 in OSO 6 mph 10.4 mph 34% 0 in
13:29 60.3 °F 31.6 °F 29.9 in OSO 6.2 mph 9 mph 34% 0 in
13:34 60.4 °F 32 °F 29.9 in OSO 4.5 mph 8.1 mph 34.1% 0 in
13:39 60.8 °F 32.7 °F 29.9 in SO 3.6 mph 12.7 mph 34.7% 0 in
13:44 61.2 °F 33.3 °F 29.9 in SSO 5.3 mph 14 mph 35% 0 in
13:49 61 °F 33.3 °F 29.9 in SO 6.2 mph 14 mph 35.3% 0 in
13:54 61 °F 33.4 °F 29.9 in SSO 7.1 mph 13.5 mph 35.4% 0 in
13:59 61.2 °F 33.3 °F 29.9 in Sur 7.6 mph 14 mph 35% 0 in
14:04 61.3 °F 33.4 °F 29.9 in SSO 7.6 mph 12 mph 35% 0 in
14:09 61.5 °F 33.4 °F 29.9 in SSO 7.6 mph 13 mph 34.9% 0 in
14:14 61.3 °F 33.3 °F 29.9 in SSO 7.1 mph 13 mph 34.7% 0 in
14:19 61.3 °F 33.4 °F 29.9 in SSO 6.9 mph 13.8 mph 35% 0 in
14:24 61.3 °F 33.6 °F 29.9 in SSO 7.2 mph 14 mph 35.3% 0 in
14:29 61.3 °F 34 °F 29.9 in SSO 7.4 mph 13 mph 35.7% 0 in
14:34 61.3 °F 33.6 °F 29.9 in SSO 7.5 mph 13 mph 35.2% 0 in
14:39 61.5 °F 33.8 °F 29.9 in SSO 7.6 mph 12.7 mph 35.1% 0 in
14:44 62.1 °F 34.2 °F 29.9 in SSO 6.8 mph 13 mph 35.3% 0 in
14:49 62.2 °F 34.2 °F 29.9 in SSO 6.4 mph 13.7 mph 35% 0 in
14:54 62.4 °F 34.3 °F 29.9 in SO 7.1 mph 14 mph 35% 0 in
14:59 62.8 °F 34.7 °F 29.9 in SO 7.6 mph 14 mph 35% 0 in
15:04 63.1 °F 34.9 °F 29.9 in SO 6.1 mph 9 mph 34.8% 0 in
15:09 63.3 °F 35.2 °F 29.9 in OSO 5.4 mph 8.1 mph 35% 0 in
15:14 63.7 °F 34.9 °F 29.9 in OSO 4.7 mph 7.4 mph 34.1% 0 in
15:19 63.9 °F 34.9 °F 29.9 in Oeste 4.3 mph 8.1 mph 34% 0 in
15:24 64 °F 35.4 °F 29.9 in OSO 4.6 mph 8.1 mph 34.6% 0 in
15:29 64 °F 35.8 °F 29.9 in SO 4.7 mph 8 mph 34.8% 0 in
15:34 64 °F 35.6 °F 29.9 in OSO 4.2 mph 8.5 mph 34.8% 0 in
15:39 63.9 °F 35.6 °F 29.9 in OSO 4 mph 9.7 mph 35% 0 in
15:44 63.5 °F 35.4 °F 29.9 in Oeste 4.5 mph 10 mph 35% 0 in
15:49 63.3 °F 35.2 °F 29.9 in Oeste 4.7 mph 7 mph 35.1% 0 in
15:54 63.3 °F 36 °F 29.9 in ONO 4 mph 6 mph 36% 0 in
15:59 63.3 °F 36.3 °F 29.9 in SE 3.6 mph 5 mph 36.6% 0 in
16:04 63.5 °F 36.7 °F 29.9 in SO 2.5 mph 6.2 mph 37% 0 in
16:09 63.7 °F 36.9 °F 29.9 in OSO 2 mph 6 mph 37% 0 in
16:14 63.7 °F 36.9 °F 29.9 in OSO 2.7 mph 6.9 mph 36.9% 0 in
16:19 63.7 °F 36.9 °F 29.9 in OSO 3.1 mph 7 mph 37% 0 in
16:24 63.3 °F 36.7 °F 29.9 in SO 3.4 mph 9.7 mph 37% 0 in
16:29 63.1 °F 36.5 °F 29.9 in SO 3.6 mph 10.4 mph 37% 0 in
16:34 63.1 °F 36.3 °F 29.9 in SO 5.1 mph 10 mph 37% 0 in
16:39 63 °F 36.3 °F 29.9 in SO 5.9 mph 10.4 mph 37.1% 0 in
16:44 62.8 °F 36.9 °F 29.9 in Oeste 5.5 mph 10 mph 38% 0 in
16:49 62.6 °F 36.7 °F 29.9 in OSO 5.2 mph 7 mph 38% 0 in
16:54 62.4 °F 36.7 °F 29.9 in Oeste 4.4 mph 6 mph 38.3% 0 in
16:59 62.1 °F 36.9 °F 29.8 in Oeste 4 mph 6.9 mph 39% 0 in
17:04 62.1 °F 36.9 °F 29.8 in Oeste 3.7 mph 7 mph 39% 0 in
17:09 62.1 °F 36.9 °F 29.8 in ONO 3.6 mph 7.4 mph 39% 0 in
17:14 62.2 °F 36.9 °F 29.8 in ONO 4 mph 7 mph 39% 0 in
17:19 62.2 °F 37 °F 29.8 in ONO 4.3 mph 8.1 mph 39% 0 in
17:24 62.2 °F 37 °F 29.8 in ONO 4.1 mph 8 mph 39% 0 in
17:29 62.1 °F 36.9 °F 29.8 in ONO 4 mph 7 mph 39% 0 in
17:34 62.1 °F 37.2 °F 29.8 in ONO 4 mph 8.5 mph 39.8% 0 in
17:39 61.7 °F 37 °F 29.8 in ONO 4 mph 9 mph 40% 0 in
17:44 61.5 °F 37.2 °F 29.8 in Oeste 4.8 mph 8 mph 40.6% 0 in
17:49 61.3 °F 37.4 °F 29.8 in ONO 5.2 mph 7 mph 41% 0 in
17:54 61.2 °F 37.4 °F 29.8 in ONO 4.1 mph 8.1 mph 41.4% 0 in
17:59 60.8 °F 37.9 °F 29.8 in ONO 3.6 mph 8.1 mph 42.6% 0 in
18:04 60.4 °F 38.8 °F 29.8 in ONO 4.7 mph 8 mph 44.8% 0 in
18:09 60.3 °F 39.6 °F 29.8 in ONO 5.2 mph 7 mph 46.5% 0 in
18:14 59.9 °F 39.7 °F 29.8 in ONO 4.6 mph 7 mph 47% 0 in
18:19 59.7 °F 39.9 °F 29.8 in ONO 4.3 mph 5.2 mph 47.8% 0 in
18:24 59.5 °F 39.9 °F 29.8 in ONO 3.4 mph 5 mph 48% 0 in
18:29 59.5 °F 39.9 °F 29.8 in NO 2.9 mph 5 mph 48.4% 0 in
18:34 59.4 °F 40.1 °F 29.8 in Oeste 2.5 mph 4.6 mph 49% 0 in
18:39 59.2 °F 40.1 °F 29.8 in ONO 2.4 mph 5.8 mph 49.4% 0 in
18:44 58.8 °F 40.1 °F 29.8 in ONO 2.9 mph 6 mph 50% 0 in
18:49 58.6 °F 40.3 °F 29.8 in Oeste 3.1 mph 5 mph 50.4% 0 in
18:54 58.5 °F 40.5 °F 29.8 in SSO 2.4 mph 5 mph 51% 0 in
18:59 58.5 °F 40.5 °F 29.8 in Sur 2 mph 6.2 mph 51% 0 in
19:04 58.3 °F 40.6 °F 29.8 in SSE 2.3 mph 6 mph 51.8% 0 in
19:09 58.1 °F 40.5 °F 29.8 in Sur 2.4 mph 5 mph 52% 0 in
19:14 58.3 °F 40.6 °F 29.8 in SSE 2.7 mph 5 mph 52% 0 in
19:19 58.1 °F 40.6 °F 29.8 in Sur 2.9 mph 5 mph 52% 0 in
19:24 57.9 °F 40.6 °F 29.8 in SSE 2.5 mph 5 mph 52.6% 0 in
19:29 57.4 °F 40.6 °F 29.8 in SE 2.4 mph 5 mph 53.5% 0 in
19:34 56.8 °F 40.6 °F 29.8 in SE 2.7 mph 5.8 mph 54.5% 0 in
19:39 56.5 °F 40.6 °F 29.8 in SE 2.9 mph 6 mph 55.3% 0 in
19:44 56.1 °F 40.6 °F 29.8 in SE 2.9 mph 5 mph 56% 0 in
19:49 55.9 °F 40.5 °F 29.8 in SE 2.9 mph 5 mph 56% 0 in
19:54 55.9 °F 40.5 °F 29.8 in SE 2.9 mph 5 mph 56% 0 in
19:59 55.9 °F 40.5 °F 29.8 in SE 2.9 mph 4 mph 56% 0 in
20:04 55.8 °F 40.8 °F 29.8 in ESE 2.1 mph 6.4 mph 57% 0 in
20:09 55.6 °F 40.6 °F 29.8 in ESE 1.8 mph 7 mph 57.2% 0 in
20:14 54.9 °F 40.5 °F 29.8 in Este 3 mph 6 mph 58.2% 0 in
20:19 54.5 °F 40.5 °F 29.8 in SE 3.6 mph 6.2 mph 59% 0 in
20:24 54.1 °F 40.3 °F 29.8 in Sur 3.6 mph 6 mph 59.4% 0 in
20:29 54.1 °F 40.5 °F 29.8 in Sur 3.6 mph 5.9 mph 59.6% 0 in
20:34 54.1 °F 40.3 °F 29.8 in SO 3.9 mph 6 mph 59% 0 in
20:39 54.5 °F 40.5 °F 29.8 in SO 4 mph 6 mph 59% 0 in
20:44 54.7 °F 40.6 °F 29.8 in SO 2.5 mph 3 mph 59% 0 in
20:49 54.5 °F 40.5 °F 29.8 in SSE 1.8 mph 4.6 mph 59% 0 in
20:54 54.1 °F 40.6 °F 29.8 in ESE 1.9 mph 5 mph 59.9% 0 in
20:59 54 °F 40.5 °F 29.8 in ESE 2 mph 5 mph 60% 0 in
21:04 53.8 °F 40.6 °F 29.8 in ESE 2 mph 3 mph 61% 0 in
21:09 53.8 °F 40.6 °F 29.8 in ESE 2 mph 3 mph 61% 0 in
21:14 53.6 °F 40.6 °F 29.8 in ESE 0.7 mph 3 mph 61.2% 0 in
21:19 53.4 °F 40.6 °F 29.8 in Calm   2.3 mph 61.8% 0 in
21:24 53.2 °F 40.6 °F 29.8 in Calm   3.5 mph 62% 0 in
21:29 53.2 °F 40.5 °F 29.8 in Calm   3.5 mph 62% 0 in
21:34 53.2 °F 40.6 °F 29.8 in ESE 1.2 mph 3.6 mph 62.4% 0 in
21:39 53.1 °F 40.8 °F 29.8 in SO 2 mph 4.6 mph 63% 0 in
21:44 52.9 °F 41 °F 29.8 in Oeste 2 mph 5 mph 63.8% 0 in
21:49 52.9 °F 41 °F 29.8 in ONO 2 mph 5.2 mph 64% 0 in
21:54 52.9 °F 41 °F 29.8 in ONO 2.3 mph 5 mph 64% 0 in
21:59 52.9 °F 41 °F 29.8 in ONO 2.4 mph 5 mph 64% 0 in
22:04 52.9 °F 41.4 °F 29.8 in ONO 0.7 mph 2.3 mph 64.9% 0 in
22:09 52.9 °F 41.4 °F 29.8 in Calm   2.4 mph 65% 0 in
22:14 52.9 °F 41.4 °F 29.8 in ONO 0.9 mph 4 mph 65% 0 in
22:19 52.9 °F 41.4 °F 29.8 in SSE 1.4 mph 8.1 mph 65% 0 in
22:24 52.9 °F 41.5 °F 29.8 in Sur 2.9 mph 8 mph 65.4% 0 in
22:29 52.7 °F 41.5 °F 29.8 in SSE 3.6 mph 8.5 mph 66% 0 in
22:34 52.5 °F 41.5 °F 29.8 in SSE 4.3 mph 9.2 mph 66% 0 in
22:39 52.7 °F 41.7 °F 29.8 in Sur 4.7 mph 9.2 mph 66% 0 in
22:44 52.9 °F 41.5 °F 29.8 in Sur 5.5 mph 9 mph 65.2% 0 in
22:49 53.1 °F 41.5 °F 29.8 in SSO 5.9 mph 7 mph 65% 0 in
22:54 53.2 °F 41.4 °F 29.8 in OSO 4.7 mph 6 mph 64.2% 0 in
22:59 53.4 °F 41.5 °F 29.8 in OSO 4 mph 5.8 mph 64% 0 in
23:04 53.4 °F 41.4 °F 29.8 in Oeste 3.4 mph 6 mph 63.8% 0 in
23:09 53.4 °F 41.5 °F 29.8 in Oeste 3.1 mph 5 mph 63.9% 0 in
23:14 53.4 °F 41.5 °F 29.8 in Oeste 1 mph 4.3 mph 64% 0 in
23:19 53.4 °F 41.5 °F 29.8 in Calm   5 mph 64% 0 in
23:24 53.2 °F 41.7 °F 29.8 in ESE 1.6 mph 5 mph 64.9% 0 in
23:29 53.1 °F 42.1 °F 29.8 in ESE 2.4 mph 5 mph 66.1% 0 in
23:34 52.9 °F 42.3 °F 29.8 in ESE 2 mph 4 mph 67% 0 in
23:39 52.9 °F 42.6 °F 29.8 in ESE 1.8 mph   67.9% 0 in
23:44 52.9 °F 42.6 °F 29.8 in ESE 0.6 mph 2.9 mph 68% 0 in
23:49 52.9 °F 42.8 °F 29.8 in Calm   4.3 mph 68.5% 0 in
23:54 52.9 °F 43.2 °F 29.8 in NNO 1.4 mph 5 mph 69.4% 0 in
23:59 52.5 °F 42.8 °F 29.8 in NO 2 mph 5 mph 69.4% 0 in
Murcia-Puente Tocinos, Espa?a
Compliments of Weather Underground - 3.25 mb

La estación de MeteoMurcia.com, publica sus datos en los siguientes proyectos:

Weather Underground PWS IMURCIAP2 Meteoclimatic www.awekas.at

W3Counter
Web Analytics